sensor_id;sensor_type;location;lat;lon;timestamp;pressure;altitude;pressure_sealevel;temperature;humidity
11314;BME280;5712;48.858;9.206;2023-04-08T00:01:26;98411.78;;;8.31;100.00
11314;BME280;5712;48.858;9.206;2023-04-08T00:03:53;98414.41;;;8.31;100.00
11314;BME280;5712;48.858;9.206;2023-04-08T00:06:19;98412.97;;;8.26;100.00
11314;BME280;5712;48.858;9.206;2023-04-08T00:08:46;98408.16;;;8.17;100.00
11314;BME280;5712;48.858;9.206;2023-04-08T00:11:12;98408.94;;;8.19;100.00
11314;BME280;5712;48.858;9.206;2023-04-08T00:13:39;98415.00;;;8.21;100.00
11314;BME280;5712;48.858;9.206;2023-04-08T00:16:06;98415.09;;;8.19;100.00
11314;BME280;5712;48.858;9.206;2023-04-08T00:18:33;98413.31;;;8.20;100.00
11314;BME280;5712;48.858;9.206;2023-04-08T00:21:02;98406.28;;;8.19;100.00
11314;BME280;5712;48.858;9.206;2023-04-08T00:23:29;98405.81;;;8.12;100.00
11314;BME280;5712;48.858;9.206;2023-04-08T00:25:55;98406.06;;;8.08;100.00
11314;BME280;5712;48.858;9.206;2023-04-08T00:28:21;98410.38;;;8.09;100.00
11314;BME280;5712;48.858;9.206;2023-04-08T00:30:48;98413.78;;;8.11;100.00
11314;BME280;5712;48.858;9.206;2023-04-08T00:33:16;98414.97;;;8.05;100.00
11314;BME280;5712;48.858;9.206;2023-04-08T00:35:43;98416.41;;;8.11;100.00
11314;BME280;5712;48.858;9.206;2023-04-08T00:38:10;98413.03;;;8.09;100.00
11314;BME280;5712;48.858;9.206;2023-04-08T00:40:36;98424.63;;;8.05;100.00
11314;BME280;5712;48.858;9.206;2023-04-08T00:43:03;98419.22;;;8.08;100.00
11314;BME280;5712;48.858;9.206;2023-04-08T00:45:31;98421.25;;;8.03;100.00
11314;BME280;5712;48.858;9.206;2023-04-08T00:47:58;98419.28;;;8.06;100.00
11314;BME280;5712;48.858;9.206;2023-04-08T00:50:26;98421.50;;;7.98;100.00
11314;BME280;5712;48.858;9.206;2023-04-08T00:52:52;98430.91;;;8.02;100.00
11314;BME280;5712;48.858;9.206;2023-04-08T00:55:19;98431.84;;;8.01;100.00
11314;BME280;5712;48.858;9.206;2023-04-08T00:57:46;98423.28;;;7.98;100.00
11314;BME280;5712;48.858;9.206;2023-04-08T01:00:14;98429.91;;;8.05;100.00
11314;BME280;5712;48.858;9.206;2023-04-08T01:02:44;98427.94;;;8.08;100.00
11314;BME280;5712;48.858;9.206;2023-04-08T01:05:15;98429.97;;;8.03;100.00
11314;BME280;5712;48.858;9.206;2023-04-08T01:07:48;98430.16;;;8.00;100.00
11314;BME280;5712;48.858;9.206;2023-04-08T01:10:17;98426.09;;;7.95;100.00
11314;BME280;5712;48.858;9.206;2023-04-08T01:12:49;98432.72;;;8.02;100.00
11314;BME280;5712;48.858;9.206;2023-04-08T01:15:17;98428.53;;;7.98;100.00
11314;BME280;5712;48.858;9.206;2023-04-08T01:17:45;98430.84;;;8.04;100.00
11314;BME280;5712;48.858;9.206;2023-04-08T01:20:13;98430.16;;;8.00;100.00
11314;BME280;5712;48.858;9.206;2023-04-08T01:22:54;98431.00;;;8.01;100.00
11314;BME280;5712;48.858;9.206;2023-04-08T01:25:27;98434.22;;;8.06;100.00
11314;BME280;5712;48.858;9.206;2023-04-08T01:27:57;98426.34;;;8.06;100.00
11314;BME280;5712;48.858;9.206;2023-04-08T01:30:26;98417.41;;;8.08;100.00
11314;BME280;5712;48.858;9.206;2023-04-08T01:32:55;98424.38;;;7.94;100.00
11314;BME280;5712;48.858;9.206;2023-04-08T01:35:23;98423.28;;;7.98;100.00
11314;BME280;5712;48.858;9.206;2023-04-08T01:37:50;98425.72;;;8.01;100.00
11314;BME280;5712;48.858;9.206;2023-04-08T01:40:18;98416.41;;;7.95;100.00
11314;BME280;5712;48.858;9.206;2023-04-08T01:42:46;98430.75;;;7.90;100.00
11314;BME280;5712;48.858;9.206;2023-04-08T01:45:15;98429.97;;;7.88;100.00
11314;BME280;5712;48.858;9.206;2023-04-08T01:47:43;98430.91;;;7.87;100.00
11314;BME280;5712;48.858;9.206;2023-04-08T01:50:11;98420.38;;;7.87;100.00
11314;BME280;5712;48.858;9.206;2023-04-08T01:52:39;98422.06;;;7.88;100.00
11314;BME280;5712;48.858;9.206;2023-04-08T01:55:07;98419.53;;;7.86;100.00
11314;BME280;5712;48.858;9.206;2023-04-08T01:57:36;98424.69;;;7.88;100.00
11314;BME280;5712;48.858;9.206;2023-04-08T02:00:06;98425.69;;;7.85;100.00
11314;BME280;5712;48.858;9.206;2023-04-08T02:02:37;98423.78;;;7.89;100.00
11314;BME280;5712;48.858;9.206;2023-04-08T02:05:04;98426.56;;;7.86;100.00
11314;BME280;5712;48.858;9.206;2023-04-08T02:07:30;98429.28;;;7.84;100.00
11314;BME280;5712;48.858;9.206;2023-04-08T02:12:26;98426.75;;;7.83;100.00
11314;BME280;5712;48.858;9.206;2023-04-08T02:14:53;98424.13;;;7.83;100.00
11314;BME280;5712;48.858;9.206;2023-04-08T02:17:25;98423.06;;;7.85;100.00
11314;BME280;5712;48.858;9.206;2023-04-08T02:19:59;98417.75;;;7.87;100.00
11314;BME280;5712;48.858;9.206;2023-04-08T02:22:31;98422.84;;;7.90;100.00
11314;BME280;5712;48.858;9.206;2023-04-08T02:25:03;98435.88;;;7.76;100.00
11314;BME280;5712;48.858;9.206;2023-04-08T02:27:34;98428.16;;;7.73;100.00
11314;BME280;5712;48.858;9.206;2023-04-08T02:30:02;98425.78;;;7.68;100.00
11314;BME280;5712;48.858;9.206;2023-04-08T02:32:32;98426.72;;;7.67;100.00
11314;BME280;5712;48.858;9.206;2023-04-08T02:35:00;98424.84;;;7.69;100.00
11314;BME280;5712;48.858;9.206;2023-04-08T02:37:29;98426.59;;;7.69;100.00
11314;BME280;5712;48.858;9.206;2023-04-08T02:39:55;98427.72;;;7.65;100.00
11314;BME280;5712;48.858;9.206;2023-04-08T02:42:22;98429.25;;;7.69;100.00
11314;BME280;5712;48.858;9.206;2023-04-08T02:44:49;98417.22;;;7.65;100.00
11314;BME280;5712;48.858;9.206;2023-04-08T02:47:16;98415.66;;;7.61;100.00
11314;BME280;5712;48.858;9.206;2023-04-08T02:49:42;98426.19;;;7.61;100.00
11314;BME280;5712;48.858;9.206;2023-04-08T02:52:10;98422.63;;;7.62;100.00
11314;BME280;5712;48.858;9.206;2023-04-08T02:54:37;98421.38;;;7.52;100.00
11314;BME280;5712;48.858;9.206;2023-04-08T02:57:03;98428.44;;;7.51;100.00
11314;BME280;5712;48.858;9.206;2023-04-08T02:59:29;98427.75;;;7.48;100.00
11314;BME280;5712;48.858;9.206;2023-04-08T03:01:56;98425.28;;;7.45;100.00
11314;BME280;5712;48.858;9.206;2023-04-08T03:04:22;98432.22;;;7.46;100.00
11314;BME280;5712;48.858;9.206;2023-04-08T03:06:49;98431.00;;;7.53;100.00
11314;BME280;5712;48.858;9.206;2023-04-08T03:09:17;98433.69;;;7.51;100.00
11314;BME280;5712;48.858;9.206;2023-04-08T03:11:43;98435.66;;;7.48;100.00
11314;BME280;5712;48.858;9.206;2023-04-08T03:14:16;98427.75;;;7.48;100.00
11314;BME280;5712;48.858;9.206;2023-04-08T03:16:43;98429.38;;;7.50;100.00
11314;BME280;5712;48.858;9.206;2023-04-08T03:19:09;98428.38;;;7.53;100.00
11314;BME280;5712;48.858;9.206;2023-04-08T03:21:36;98436.16;;;7.54;100.00
11314;BME280;5712;48.858;9.206;2023-04-08T03:24:02;98436.84;;;7.58;100.00
11314;BME280;5712;48.858;9.206;2023-04-08T03:26:30;98438.72;;;7.56;100.00
11314;BME280;5712;48.858;9.206;2023-04-08T03:28:57;98433.13;;;7.62;100.00
11314;BME280;5712;48.858;9.206;2023-04-08T03:31:24;98435.44;;;7.68;100.00
11314;BME280;5712;48.858;9.206;2023-04-08T03:33:50;98435.28;;;7.71;100.00
11314;BME280;5712;48.858;9.206;2023-04-08T03:36:16;98437.63;;;7.60;100.00
11314;BME280;5712;48.858;9.206;2023-04-08T03:38:43;98444.97;;;7.53;100.00
11314;BME280;5712;48.858;9.206;2023-04-08T03:41:10;98441.53;;;7.53;100.00
11314;BME280;5712;48.858;9.206;2023-04-08T03:43:37;98435.56;;;7.49;100.00
11314;BME280;5712;48.858;9.206;2023-04-08T03:46:04;98442.59;;;7.49;100.00
11314;BME280;5712;48.858;9.206;2023-04-08T03:48:31;98440.91;;;7.48;100.00
11314;BME280;5712;48.858;9.206;2023-04-08T03:50:57;98445.63;;;7.41;100.00
11314;BME280;5712;48.858;9.206;2023-04-08T03:53:24;98438.84;;;7.38;100.00
11314;BME280;5712;48.858;9.206;2023-04-08T03:55:52;98435.50;;;7.34;100.00
11314;BME280;5712;48.858;9.206;2023-04-08T03:58:18;98435.50;;;7.34;100.00
11314;BME280;5712;48.858;9.206;2023-04-08T04:00:46;98429.16;;;7.38;100.00
11314;BME280;5712;48.858;9.206;2023-04-08T04:03:13;98433.19;;;7.28;100.00
11314;BME280;5712;48.858;9.206;2023-04-08T04:05:39;98432.34;;;7.28;100.00
11314;BME280;5712;48.858;9.206;2023-04-08T04:08:06;98432.78;;;7.18;100.00
11314;BME280;5712;48.858;9.206;2023-04-08T04:10:33;98438.22;;;7.16;100.00
11314;BME280;5712;48.858;9.206;2023-04-08T04:13:00;98433.97;;;7.13;100.00
11314;BME280;5712;48.858;9.206;2023-04-08T04:15:26;98441.22;;;7.08;100.00
11314;BME280;5712;48.858;9.206;2023-04-08T04:17:54;98439.53;;;7.07;100.00
11314;BME280;5712;48.858;9.206;2023-04-08T04:20:20;98441.50;;;6.85;100.00
11314;BME280;5712;48.858;9.206;2023-04-08T04:22:47;98444.22;;;6.67;100.00
11314;BME280;5712;48.858;9.206;2023-04-08T04:25:14;98442.75;;;6.61;100.00
11314;BME280;5712;48.858;9.206;2023-04-08T04:27:40;98445.50;;;6.58;100.00
11314;BME280;5712;48.858;9.206;2023-04-08T04:30:07;98444.25;;;6.48;100.00
11314;BME280;5712;48.858;9.206;2023-04-08T04:32:34;98451.50;;;6.43;100.00
11314;BME280;5712;48.858;9.206;2023-04-08T04:35:02;98439.38;;;6.41;100.00
11314;BME280;5712;48.858;9.206;2023-04-08T04:37:29;98445.03;;;6.32;100.00
11314;BME280;5712;48.858;9.206;2023-04-08T04:39:55;98443.56;;;6.26;100.00
11314;BME280;5712;48.858;9.206;2023-04-08T04:42:22;98445.28;;;6.27;100.00
11314;BME280;5712;48.858;9.206;2023-04-08T04:44:48;98448.03;;;6.24;100.00
11314;BME280;5712;48.858;9.206;2023-04-08T04:47:15;98450.53;;;6.27;100.00
11314;BME280;5712;48.858;9.206;2023-04-08T04:49:41;98456.75;;;6.25;100.00
11314;BME280;5712;48.858;9.206;2023-04-08T04:52:11;98452.50;;;6.22;100.00
11314;BME280;5712;48.858;9.206;2023-04-08T04:54:37;98458.69;;;6.21;100.00
11314;BME280;5712;48.858;9.206;2023-04-08T04:57:04;98458.75;;;6.20;100.00
11314;BME280;5712;48.858;9.206;2023-04-08T04:59:30;98457.25;;;6.14;100.00
11314;BME280;5712;48.858;9.206;2023-04-08T05:01:57;98463.56;;;6.10;100.00
11314;BME280;5712;48.858;9.206;2023-04-08T05:04:24;98462.50;;;6.14;100.00
11314;BME280;5712;48.858;9.206;2023-04-08T05:06:50;98466.84;;;6.15;100.00
11314;BME280;5712;48.858;9.206;2023-04-08T05:09:18;98466.69;;;6.18;100.00
11314;BME280;5712;48.858;9.206;2023-04-08T05:11:45;98468.47;;;6.18;100.00
11314;BME280;5712;48.858;9.206;2023-04-08T05:14:11;98466.56;;;6.21;100.00
11314;BME280;5712;48.858;9.206;2023-04-08T05:16:38;98472.44;;;6.26;100.00
11314;BME280;5712;48.858;9.206;2023-04-08T05:19:04;98478.47;;;6.28;100.00
11314;BME280;5712;48.858;9.206;2023-04-08T05:21:31;98485.28;;;6.32;100.00
11314;BME280;5712;48.858;9.206;2023-04-08T05:23:57;98487.09;;;6.30;100.00
11314;BME280;5712;48.858;9.206;2023-04-08T05:26:25;98487.47;;;6.41;100.00
11314;BME280;5712;48.858;9.206;2023-04-08T05:28:52;98500.81;;;6.55;100.00
11314;BME280;5712;48.858;9.206;2023-04-08T05:31:19;98496.25;;;6.59;100.00
11314;BME280;5712;48.858;9.206;2023-04-08T05:33:46;98498.06;;;6.75;100.00
11314;BME280;5712;48.858;9.206;2023-04-08T05:36:13;98495.44;;;6.75;100.00
11314;BME280;5712;48.858;9.206;2023-04-08T05:38:39;98496.84;;;6.82;100.00
11314;BME280;5712;48.858;9.206;2023-04-08T05:41:07;98501.03;;;6.86;100.00
11314;BME280;5712;48.858;9.206;2023-04-08T05:43:35;98498.88;;;6.94;100.00
11314;BME280;5712;48.858;9.206;2023-04-08T05:46:05;98506.47;;;7.00;100.00
11314;BME280;5712;48.858;9.206;2023-04-08T05:48:32;98502.59;;;7.07;100.00
11314;BME280;5712;48.858;9.206;2023-04-08T05:50:58;98508.13;;;7.20;100.00
11314;BME280;5712;48.858;9.206;2023-04-08T05:53:25;98513.16;;;7.24;100.00
11314;BME280;5712;48.858;9.206;2023-04-08T05:55:51;98507.94;;;7.22;100.00
11314;BME280;5712;48.858;9.206;2023-04-08T05:58:18;98504.25;;;7.27;100.00
11314;BME280;5712;48.858;9.206;2023-04-08T06:00:46;98508.34;;;7.32;100.00
11314;BME280;5712;48.858;9.206;2023-04-08T06:03:12;98509.91;;;7.36;100.00
11314;BME280;5712;48.858;9.206;2023-04-08T06:05:39;98519.56;;;7.35;100.00
11314;BME280;5712;48.858;9.206;2023-04-08T06:08:05;98520.56;;;7.33;100.00
11314;BME280;5712;48.858;9.206;2023-04-08T06:10:32;98520.09;;;7.42;100.00
11314;BME280;5712;48.858;9.206;2023-04-08T06:12:58;98519.19;;;7.43;100.00
11314;BME280;5712;48.858;9.206;2023-04-08T06:15:25;98521.19;;;7.55;100.00
11314;BME280;5712;48.858;9.206;2023-04-08T06:17:53;98530.78;;;7.56;100.00
11314;BME280;5712;48.858;9.206;2023-04-08T06:20:20;98522.56;;;7.62;100.00
11314;BME280;5712;48.858;9.206;2023-04-08T06:22:46;98527.38;;;7.71;100.00
11314;BME280;5712;48.858;9.206;2023-04-08T06:25:13;98529.69;;;7.77;100.00
11314;BME280;5712;48.858;9.206;2023-04-08T06:27:39;98534.53;;;7.84;100.00
11314;BME280;5712;48.858;9.206;2023-04-08T06:30:07;98526.41;;;7.89;100.00
11314;BME280;5712;48.858;9.206;2023-04-08T06:32:34;98529.94;;;7.88;100.00
11314;BME280;5712;48.858;9.206;2023-04-08T06:35:02;98532.75;;;7.85;100.00
11314;BME280;5712;48.858;9.206;2023-04-08T06:37:28;98533.19;;;7.93;100.00
11314;BME280;5712;48.858;9.206;2023-04-08T06:39:55;98541.03;;;7.94;100.00
11314;BME280;5712;48.858;9.206;2023-04-08T06:42:21;98538.91;;;8.01;100.00
11314;BME280;5712;48.858;9.206;2023-04-08T06:44:48;98537.91;;;8.03;100.00
11314;BME280;5712;48.858;9.206;2023-04-08T06:47:14;98533.78;;;8.15;100.00
11314;BME280;5712;48.858;9.206;2023-04-08T06:49:41;98539.38;;;8.09;100.00
11314;BME280;5712;48.858;9.206;2023-04-08T06:52:09;98547.88;;;8.14;100.00
11314;BME280;5712;48.858;9.206;2023-04-08T06:54:35;98544.03;;;8.21;100.00
11314;BME280;5712;48.858;9.206;2023-04-08T06:57:02;98541.31;;;8.22;100.00
11314;BME280;5712;48.858;9.206;2023-04-08T06:59:29;98551.66;;;8.25;100.00
11314;BME280;5712;48.858;9.206;2023-04-08T07:01:55;98553.56;;;8.39;100.00
11314;BME280;5712;48.858;9.206;2023-04-08T07:04:22;98560.53;;;8.40;100.00
11314;BME280;5712;48.858;9.206;2023-04-08T07:06:48;98554.59;;;8.36;100.00
11314;BME280;5712;48.858;9.206;2023-04-08T07:09:16;98551.38;;;8.47;100.00
11314;BME280;5712;48.858;9.206;2023-04-08T07:11:43;98559.53;;;8.58;100.00
11314;BME280;5712;48.858;9.206;2023-04-08T07:14:10;98562.00;;;8.61;100.00
11314;BME280;5712;48.858;9.206;2023-04-08T07:16:37;98552.66;;;8.71;100.00
11314;BME280;5712;48.858;9.206;2023-04-08T07:19:03;98549.78;;;8.75;100.00
11314;BME280;5712;48.858;9.206;2023-04-08T07:21:30;98546.31;;;8.90;100.00
11314;BME280;5712;48.858;9.206;2023-04-08T07:23:57;98544.00;;;8.84;100.00
11314;BME280;5712;48.858;9.206;2023-04-08T07:26:25;98545.44;;;8.90;100.00
11314;BME280;5712;48.858;9.206;2023-04-08T07:28:52;98547.38;;;9.02;100.00
11314;BME280;5712;48.858;9.206;2023-04-08T07:31:19;98553.59;;;9.01;100.00
11314;BME280;5712;48.858;9.206;2023-04-08T07:33:45;98556.56;;;8.95;100.00
11314;BME280;5712;48.858;9.206;2023-04-08T07:36:13;98558.34;;;9.10;100.00
11314;BME280;5712;48.858;9.206;2023-04-08T07:38:40;98561.41;;;9.18;100.00
11314;BME280;5712;48.858;9.206;2023-04-08T07:41:06;98561.06;;;9.24;100.00
11314;BME280;5712;48.858;9.206;2023-04-08T07:43:34;98549.22;;;9.31;99.27
11314;BME280;5712;48.858;9.206;2023-04-08T07:46:01;98555.09;;;9.36;98.43
11314;BME280;5712;48.858;9.206;2023-04-08T07:48:29;98565.81;;;9.33;98.22
11314;BME280;5712;48.858;9.206;2023-04-08T07:50:55;98559.34;;;9.38;98.76
11314;BME280;5712;48.858;9.206;2023-04-08T07:53:22;98557.94;;;9.47;98.09
11314;BME280;5712;48.858;9.206;2023-04-08T07:55:51;98564.94;;;9.48;97.46
11314;BME280;5712;48.858;9.206;2023-04-08T07:58:18;98564.56;;;9.54;97.75
11314;BME280;5712;48.858;9.206;2023-04-08T08:00:45;98573.56;;;9.65;97.48
11314;BME280;5712;48.858;9.206;2023-04-08T08:03:12;98583.44;;;9.62;95.45
11314;BME280;5712;48.858;9.206;2023-04-08T08:05:38;98562.09;;;9.80;93.30
11314;BME280;5712;48.858;9.206;2023-04-08T08:08:05;98566.34;;;9.83;92.45
11314;BME280;5712;48.858;9.206;2023-04-08T08:10:32;98566.69;;;9.77;92.32
11314;BME280;5712;48.858;9.206;2023-04-08T08:12:59;98567.00;;;9.86;92.77
11314;BME280;5712;48.858;9.206;2023-04-08T08:15:25;98568.53;;;9.90;91.70
11314;BME280;5712;48.858;9.206;2023-04-08T08:17:53;98564.94;;;9.91;91.18
11314;BME280;5712;48.858;9.206;2023-04-08T08:20:20;98560.69;;;9.89;90.23
11314;BME280;5712;48.858;9.206;2023-04-08T08:22:46;98568.72;;;9.87;89.70
11314;BME280;5712;48.858;9.206;2023-04-08T08:25:13;98566.88;;;10.03;90.20
11314;BME280;5712;48.858;9.206;2023-04-08T08:27:39;98567.94;;;10.15;89.71
11314;BME280;5712;48.858;9.206;2023-04-08T08:30:07;98559.00;;;10.02;87.62
11314;BME280;5712;48.858;9.206;2023-04-08T08:32:34;98561.25;;;10.23;86.50
11314;BME280;5712;48.858;9.206;2023-04-08T08:35:03;98559.94;;;10.30;86.62
11314;BME280;5712;48.858;9.206;2023-04-08T08:37:29;98563.13;;;10.35;84.61
11314;BME280;5712;48.858;9.206;2023-04-08T08:39:56;98558.91;;;10.47;83.58
11314;BME280;5712;48.858;9.206;2023-04-08T08:42:24;98567.19;;;10.55;83.33
11314;BME280;5712;48.858;9.206;2023-04-08T08:44:50;98565.88;;;10.34;82.56
11314;BME280;5712;48.858;9.206;2023-04-08T08:47:17;98571.75;;;10.39;82.90
11314;BME280;5712;48.858;9.206;2023-04-08T08:49:44;98574.84;;;10.45;82.62
11314;BME280;5712;48.858;9.206;2023-04-08T08:52:14;98571.25;;;10.60;82.32
11314;BME280;5712;48.858;9.206;2023-04-08T08:54:41;98574.06;;;10.71;80.10
11314;BME280;5712;48.858;9.206;2023-04-08T08:57:15;98558.19;;;10.71;76.96
11314;BME280;5712;48.858;9.206;2023-04-08T08:59:44;98567.84;;;10.72;77.80
11314;BME280;5712;48.858;9.206;2023-04-08T09:02:23;98584.84;;;10.68;79.79
11314;BME280;5712;48.858;9.206;2023-04-08T09:04:55;98570.66;;;10.69;79.12
11314;BME280;5712;48.858;9.206;2023-04-08T09:07:25;98587.22;;;10.59;79.61
11314;BME280;5712;48.858;9.206;2023-04-08T09:09:52;98580.97;;;10.60;79.92
11314;BME280;5712;48.858;9.206;2023-04-08T09:12:19;98582.56;;;10.76;78.97
11314;BME280;5712;48.858;9.206;2023-04-08T09:14:46;98577.53;;;10.86;77.76
11314;BME280;5712;48.858;9.206;2023-04-08T09:17:13;98579.66;;;11.07;77.46
11314;BME280;5712;48.858;9.206;2023-04-08T09:20:03;98565.66;;;11.19;74.54
11314;BME280;5712;48.858;9.206;2023-04-08T09:22:32;98560.94;;;10.84;72.45
11314;BME280;5712;48.858;9.206;2023-04-08T09:24:58;98555.59;;;10.98;70.99
11314;BME280;5712;48.858;9.206;2023-04-08T09:27:32;98560.34;;;11.19;70.29
11314;BME280;5712;48.858;9.206;2023-04-08T09:30:12;98546.41;;;11.30;69.38
11314;BME280;5712;48.858;9.206;2023-04-08T09:32:46;98515.28;;;11.21;62.39
11314;BME280;5712;48.858;9.206;2023-04-08T09:35:13;98531.25;;;11.46;62.45
11314;BME280;5712;48.858;9.206;2023-04-08T09:37:42;98543.25;;;11.51;63.46
11314;BME280;5712;48.858;9.206;2023-04-08T09:40:09;98538.22;;;11.61;63.38
11314;BME280;5712;48.858;9.206;2023-04-08T09:42:39;98542.97;;;11.68;65.04
11314;BME280;5712;48.858;9.206;2023-04-08T09:45:08;98518.44;;;11.79;60.31
11314;BME280;5712;48.858;9.206;2023-04-08T09:47:41;98533.84;;;11.60;60.82
11314;BME280;5712;48.858;9.206;2023-04-08T09:50:08;98530.91;;;11.64;59.78
11314;BME280;5712;48.858;9.206;2023-04-08T09:52:38;98507.09;;;11.77;58.00
11314;BME280;5712;48.858;9.206;2023-04-08T09:55:11;98513.88;;;11.93;58.03
11314;BME280;5712;48.858;9.206;2023-04-08T09:57:40;98504.84;;;12.21;56.23
11314;BME280;5712;48.858;9.206;2023-04-08T10:00:13;98496.81;;;12.22;55.16
11314;BME280;5712;48.858;9.206;2023-04-08T10:02:46;98503.38;;;12.04;55.35
11314;BME280;5712;48.858;9.206;2023-04-08T10:05:16;98497.25;;;12.29;54.48
11314;BME280;5712;48.858;9.206;2023-04-08T10:07:43;98509.31;;;12.33;55.67
11314;BME280;5712;48.858;9.206;2023-04-08T10:10:11;98494.16;;;12.35;54.09
11314;BME280;5712;48.858;9.206;2023-04-08T10:12:38;98502.00;;;12.24;54.07
11314;BME280;5712;48.858;9.206;2023-04-08T10:15:21;98511.25;;;12.06;55.09
11314;BME280;5712;48.858;9.206;2023-04-08T10:17:48;98509.31;;;11.83;56.22
11314;BME280;5712;48.858;9.206;2023-04-08T10:20:40;98514.38;;;11.61;56.37
11314;BME280;5712;48.858;9.206;2023-04-08T10:23:09;98515.22;;;11.61;56.70
11314;BME280;5712;48.858;9.206;2023-04-08T10:25:39;98524.41;;;11.56;57.06
11314;BME280;5712;48.858;9.206;2023-04-08T10:28:24;98520.59;;;11.60;56.57
11314;BME280;5712;48.858;9.206;2023-04-08T10:30:52;98504.38;;;11.52;56.08
11314;BME280;5712;48.858;9.206;2023-04-08T10:33:21;98500.53;;;11.43;55.24
11314;BME280;5712;48.858;9.206;2023-04-08T10:35:52;98503.50;;;11.39;55.68
11314;BME280;5712;48.858;9.206;2023-04-08T10:38:19;98508.56;;;11.42;56.02
11314;BME280;5712;48.858;9.206;2023-04-08T10:40:48;98515.56;;;11.43;56.27
11314;BME280;5712;48.858;9.206;2023-04-08T10:43:15;98518.50;;;11.38;56.64
11314;BME280;5712;48.858;9.206;2023-04-08T10:45:43;98522.09;;;11.25;57.01
11314;BME280;5712;48.858;9.206;2023-04-08T10:48:14;98533.25;;;11.16;57.44
11314;BME280;5712;48.858;9.206;2023-04-08T10:50:42;98520.47;;;11.22;57.34
11314;BME280;5712;48.858;9.206;2023-04-08T10:53:09;98527.56;;;11.22;57.32
11314;BME280;5712;48.858;9.206;2023-04-08T10:55:36;98528.66;;;11.32;57.92
11314;BME280;5712;48.858;9.206;2023-04-08T10:58:08;98541.13;;;11.30;58.37
11314;BME280;5712;48.858;9.206;2023-04-08T11:00:36;98539.44;;;11.29;58.02
11314;BME280;5712;48.858;9.206;2023-04-08T11:03:05;98558.72;;;11.31;59.06
11314;BME280;5712;48.858;9.206;2023-04-08T11:05:32;98530.75;;;11.27;57.75
11314;BME280;5712;48.858;9.206;2023-04-08T11:08:00;98523.13;;;11.22;56.68
11314;BME280;5712;48.858;9.206;2023-04-08T11:10:27;98526.72;;;11.21;57.16
11314;BME280;5712;48.858;9.206;2023-04-08T11:12:54;98526.09;;;11.18;57.16
11314;BME280;5712;48.858;9.206;2023-04-08T11:15:24;98510.63;;;11.12;55.58
11314;BME280;5712;48.858;9.206;2023-04-08T11:17:50;98530.25;;;11.08;57.20
11314;BME280;5712;48.858;9.206;2023-04-08T11:20:17;98531.09;;;11.08;57.54
11314;BME280;5712;48.858;9.206;2023-04-08T11:22:46;98530.28;;;11.20;56.40
11314;BME280;5712;48.858;9.206;2023-04-08T11:25:13;98523.78;;;11.26;56.18
11314;BME280;5712;48.858;9.206;2023-04-08T11:27:40;98503.97;;;11.19;56.20
11314;BME280;5712;48.858;9.206;2023-04-08T11:30:08;98505.00;;;10.90;56.20
11314;BME280;5712;48.858;9.206;2023-04-08T11:32:38;98510.09;;;10.93;55.98
11314;BME280;5712;48.858;9.206;2023-04-08T11:35:05;98514.97;;;10.99;56.71
11314;BME280;5712;48.858;9.206;2023-04-08T11:37:36;98519.88;;;11.05;57.05
11314;BME280;5712;48.858;9.206;2023-04-08T11:40:06;98509.03;;;11.22;56.47
11314;BME280;5712;48.858;9.206;2023-04-08T11:42:33;98510.44;;;11.27;56.12
11314;BME280;5712;48.858;9.206;2023-04-08T11:44:59;98504.38;;;11.13;55.26
11314;BME280;5712;48.858;9.206;2023-04-08T11:47:30;98505.66;;;11.20;55.64
11314;BME280;5712;48.858;9.206;2023-04-08T11:49:59;98513.13;;;11.13;56.38
11314;BME280;5712;48.858;9.206;2023-04-08T11:52:40;98515.03;;;11.11;56.65
11314;BME280;5712;48.858;9.206;2023-04-08T11:55:08;98512.56;;;11.08;56.03
11314;BME280;5712;48.858;9.206;2023-04-08T11:57:35;98517.22;;;11.05;56.10
11314;BME280;5712;48.858;9.206;2023-04-08T12:00:02;98521.69;;;11.04;57.08
11314;BME280;5712;48.858;9.206;2023-04-08T12:02:29;98518.19;;;11.04;57.26
11314;BME280;5712;48.858;9.206;2023-04-08T12:04:56;98529.88;;;11.14;57.44
11314;BME280;5712;48.858;9.206;2023-04-08T12:07:24;98536.13;;;11.13;57.52
11314;BME280;5712;48.858;9.206;2023-04-08T12:09:51;98530.69;;;11.14;57.33
11314;BME280;5712;48.858;9.206;2023-04-08T12:12:17;98530.91;;;11.11;57.17
11314;BME280;5712;48.858;9.206;2023-04-08T12:14:44;98537.56;;;11.04;57.93
11314;BME280;5712;48.858;9.206;2023-04-08T12:17:10;98544.53;;;11.05;58.83
11314;BME280;5712;48.858;9.206;2023-04-08T12:19:37;98536.19;;;11.11;57.83
11314;BME280;5712;48.858;9.206;2023-04-08T12:22:03;98536.84;;;11.15;58.39
11314;BME280;5712;48.858;9.206;2023-04-08T12:24:31;98550.41;;;11.23;58.35
11314;BME280;5712;48.858;9.206;2023-04-08T12:26:58;98528.03;;;11.28;56.97
11314;BME280;5712;48.858;9.206;2023-04-08T12:29:26;98537.97;;;11.25;57.36
11314;BME280;5712;48.858;9.206;2023-04-08T12:31:52;98538.88;;;11.24;57.67
11314;BME280;5712;48.858;9.206;2023-04-08T12:34:19;98543.94;;;11.41;57.81
11314;BME280;5712;48.858;9.206;2023-04-08T12:36:45;98538.63;;;11.41;57.25
11314;BME280;5712;48.858;9.206;2023-04-08T12:39:13;98547.34;;;11.43;58.09
11314;BME280;5712;48.858;9.206;2023-04-08T12:41:41;98540.31;;;11.42;58.09
11314;BME280;5712;48.858;9.206;2023-04-08T12:44:07;98548.25;;;11.42;58.51
11314;BME280;5712;48.858;9.206;2023-04-08T12:46:34;98552.41;;;11.46;59.14
11314;BME280;5712;48.858;9.206;2023-04-08T12:49:00;98563.72;;;11.62;60.33
11314;BME280;5712;48.858;9.206;2023-04-08T12:51:27;98545.56;;;11.82;58.72
11314;BME280;5712;48.858;9.206;2023-04-08T12:53:55;98545.44;;;11.84;58.05
11314;BME280;5712;48.858;9.206;2023-04-08T12:56:21;98553.09;;;11.88;58.26
11314;BME280;5712;48.858;9.206;2023-04-08T12:58:49;98544.59;;;11.96;58.40
11314;BME280;5712;48.858;9.206;2023-04-08T13:01:16;98547.06;;;11.99;58.93
11314;BME280;5712;48.858;9.206;2023-04-08T13:03:42;98543.25;;;12.15;58.37
11314;BME280;5712;48.858;9.206;2023-04-08T13:06:09;98533.94;;;12.10;57.58
11314;BME280;5712;48.858;9.206;2023-04-08T13:08:36;98537.72;;;12.06;57.77
11314;BME280;5712;48.858;9.206;2023-04-08T13:11:02;98543.75;;;12.08;58.03
11314;BME280;5712;48.858;9.206;2023-04-08T13:13:29;98540.69;;;12.01;57.93
11314;BME280;5712;48.858;9.206;2023-04-08T13:15:57;98537.50;;;11.96;58.22
11314;BME280;5712;48.858;9.206;2023-04-08T13:18:23;98547.25;;;11.96;59.28